Time;durP1;ratioP1;P1;durP2;ratioP2;P2;SDS_P1;SDS_P2;PMS_P1;PMS_P2;Temp;Humidity;BMP_temperature;BMP_pressure;BME280_temperature;BME280_humidity;BME280_pressure;Samples;Min_cycle;Max_cycle;Signal;HPM_P1;HPM_P2
2021/08/03 00:00:39;;;;;;;5.20;4.70;;;24.50;55.50;;;;;;5081532;28;20028;-36
2021/08/03 00:03:07;;;;;;;5.97;5.03;;;24.50;55.50;;;;;;5083129;28;20127;-36
2021/08/03 00:05:39;;;;;;;5.78;5.07;;;24.40;55.60;;;;;;5079966;28;20033;-36
2021/08/03 00:08:28;;;;;;;5.90;5.00;;;24.40;55.60;;;;;;5083255;28;20035;-37
2021/08/03 00:10:54;;;;;;;5.45;4.75;;;24.40;55.70;;;;;;5042491;28;20057;-36
2021/08/03 00:13:21;;;;;;;5.07;4.55;;;24.30;55.60;;;;;;5046824;28;20525;-36
2021/08/03 00:15:47;;;;;;;5.65;5.07;;;24.30;55.70;;;;;;5058516;28;20037;-36
2021/08/03 00:18:18;;;;;;;6.53;5.45;;;24.30;55.80;;;;;;5071210;28;20032;-36
2021/08/03 00:20:44;;;;;;;5.53;4.70;;;24.30;55.80;;;;;;5082860;28;20041;-36
2021/08/03 00:23:10;;;;;;;6.10;5.13;;;24.20;55.60;;;;;;5083021;28;20072;-37
2021/08/03 00:25:37;;;;;;;5.83;4.93;;;24.20;55.70;;;;;;5082602;28;20092;-37
2021/08/03 00:28:03;;;;;;;5.70;4.97;;;24.20;55.70;;;;;;5063024;28;20025;-36
2021/08/03 00:30:29;;;;;;;5.63;5.00;;;24.10;55.60;;;;;;5061221;28;20021;-37
2021/08/03 00:32:55;;;;;;;6.25;5.65;;;24.10;55.60;;;;;;5062847;28;20021;-37
2021/08/03 00:35:22;;;;;;;5.47;4.97;;;24.10;55.70;;;;;;5069988;28;20023;-36
2021/08/03 00:37:48;;;;;;;5.95;5.20;;;24.00;55.60;;;;;;5082877;28;20052;-36
2021/08/03 00:40:15;;;;;;;5.55;4.82;;;24.00;55.80;;;;;;5066311;28;20033;-37
2021/08/03 00:42:41;;;;;;;6.10;5.40;;;24.00;55.80;;;;;;5062525;28;20105;-36
2021/08/03 00:45:07;;;;;;;6.00;5.40;;;24.00;56.00;;;;;;5062656;28;20037;-37
2021/08/03 00:47:34;;;;;;;5.95;4.97;;;23.90;55.70;;;;;;5062536;28;20025;-37
2021/08/03 00:50:00;;;;;;;5.65;5.05;;;23.90;55.90;;;;;;5062594;28;20035;-37
2021/08/03 00:52:26;;;;;;;5.38;4.72;;;23.90;56.60;;;;;;5062543;28;20029;-37
2021/08/03 00:54:53;;;;;;;5.32;4.82;;;23.90;55.90;;;;;;5062457;28;20584;-37
2021/08/03 00:57:19;;;;;;;6.23;5.13;;;23.80;55.90;;;;;;5075986;28;20035;-36
2021/08/03 00:59:45;;;;;;;6.57;5.22;;;23.80;55.90;;;;;;5082649;28;20017;-37
2021/08/03 01:02:12;;;;;;;5.95;4.93;;;23.70;55.90;;;;;;5083956;28;20036;-36
2021/08/03 01:04:38;;;;;;;5.45;4.68;;;23.70;55.80;;;;;;5086732;28;20095;-36
2021/08/03 01:07:25;;;;;;;5.57;4.78;;;23.70;56.00;;;;;;5082911;28;20029;-36
2021/08/03 01:10:13;;;;;;;5.60;4.70;;;23.70;55.90;;;;;;5079176;28;20543;-36
2021/08/03 01:12:42;;;;;;;5.72;5.03;;;23.60;56.00;;;;;;5086548;28;20056;-36
2021/08/03 01:15:12;;;;;;;5.68;5.00;;;23.60;56.00;;;;;;5086247;28;20027;-36
2021/08/03 01:18:08;;;;;;;5.07;4.57;;;23.60;55.90;;;;;;5086167;28;20560;-36
2021/08/03 01:21:06;;;;;;;4.70;4.20;;;23.50;55.90;;;;;;5084871;28;20086;-36
2021/08/03 01:23:56;;;;;;;4.82;4.30;;;23.50;56.10;;;;;;5084808;28;20049;-36
2021/08/03 01:26:32;;;;;;;5.47;4.85;;;23.50;56.70;;;;;;5079873;28;20029;-36
2021/08/03 01:29:01;;;;;;;5.15;4.55;;;23.50;56.50;;;;;;5066242;28;20175;-36
2021/08/03 01:31:32;;;;;;;5.15;4.65;;;23.40;57.50;;;;;;5064527;28;20022;-36
2021/08/03 01:34:11;;;;;;;5.32;4.80;;;23.40;57.40;;;;;;5066050;28;20021;-36
2021/08/03 01:36:39;;;;;;;5.47;4.85;;;23.50;57.50;;;;;;5064260;28;20056;-36
2021/08/03 01:39:06;;;;;;;4.93;4.43;;;23.40;57.40;;;;;;5071225;28;20048;-36
2021/08/03 01:41:32;;;;;;;5.18;4.43;;;23.40;57.50;;;;;;5085730;28;20059;-36
2021/08/03 01:43:58;;;;;;;5.20;4.70;;;23.50;57.80;;;;;;5085721;28;20062;-36
2021/08/03 01:46:25;;;;;;;5.38;4.80;;;23.50;57.90;;;;;;5085576;28;20024;-36
2021/08/03 01:48:51;;;;;;;6.03;5.43;;;23.50;57.90;;;;;;5084184;28;20021;-36
2021/08/03 01:51:18;;;;;;;5.73;5.10;;;23.50;58.10;;;;;;5084437;28;20389;-36
2021/08/03 01:53:44;;;;;;;5.57;4.97;;;23.50;58.20;;;;;;5084369;28;20032;-36
2021/08/03 01:56:10;;;;;;;5.47;4.63;;;23.50;58.40;;;;;;5081162;28;20028;-36
2021/08/03 01:58:39;;;;;;;5.55;5.05;;;23.50;58.60;;;;;;5064038;28;20297;-36
2021/08/03 02:01:05;;;;;;;6.25;5.38;;;23.60;58.70;;;;;;5065234;28;20033;-36
2021/08/03 02:03:31;;;;;;;5.93;5.15;;;23.60;58.90;;;;;;5047463;28;20055;-37
2021/08/03 02:05:58;;;;;;;5.57;4.90;;;23.60;59.00;;;;;;5066846;28;20366;-36
2021/08/03 02:08:24;;;;;;;5.90;5.03;;;23.60;59.10;;;;;;5063290;28;20089;-36
2021/08/03 02:10:50;;;;;;;6.18;5.22;;;23.60;59.20;;;;;;5064988;28;20052;-36
2021/08/03 02:13:16;;;;;;;5.68;5.07;;;23.60;59.30;;;;;;5074432;28;20025;-36
2021/08/03 02:15:43;;;;;;;6.35;5.35;;;23.60;59.40;;;;;;5063895;28;20024;-37
2021/08/03 02:18:09;;;;;;;7.07;5.75;;;23.70;59.60;;;;;;5065204;28;20036;-36
2021/08/03 02:20:35;;;;;;;6.40;5.47;;;23.70;59.70;;;;;;5063331;28;20060;-36
2021/08/03 02:23:01;;;;;;;6.13;5.53;;;23.70;59.80;;;;;;5063634;28;20036;-36
2021/08/03 02:25:27;;;;;;;6.25;5.60;;;23.70;59.90;;;;;;5064797;28;20033;-37
2021/08/03 02:27:55;;;;;;;6.03;5.43;;;23.70;59.90;;;;;;5081752;28;20121;-37
2021/08/03 02:30:21;;;;;;;8.20;6.25;;;23.70;60.10;;;;;;5084739;28;20028;-36
2021/08/03 02:32:57;;;;;;;7.90;5.80;;;23.70;60.20;;;;;;5083409;28;20024;-36
2021/08/03 02:35:24;;;;;;;7.10;6.25;;;23.80;60.30;;;;;;5084916;28;20031;-36
2021/08/03 02:38:05;;;;;;;7.25;5.97;;;23.80;60.30;;;;;;5083394;28;20028;-36
2021/08/03 02:40:31;;;;;;;7.70;6.28;;;23.80;60.30;;;;;;5067032;28;20040;-37
2021/08/03 02:42:57;;;;;;;7.28;6.22;;;23.80;60.40;;;;;;5046737;28;20040;-37
2021/08/03 02:45:24;;;;;;;7.75;6.65;;;23.80;60.50;;;;;;5064622;28;20100;-37
2021/08/03 02:47:53;;;;;;;7.63;6.07;;;23.80;60.50;;;;;;5063180;28;20036;-36
2021/08/03 02:50:24;;;;;;;7.60;6.80;;;23.90;60.60;;;;;;5046600;28;20262;-36
2021/08/03 02:52:53;;;;;;;8.25;6.88;;;23.90;60.70;;;;;;5046821;28;20025;-39
2021/08/03 02:55:19;;;;;;;8.23;6.95;;;23.90;60.70;;;;;;5064131;28;20552;-37
2021/08/03 02:57:47;;;;;;;8.00;7.10;;;23.90;60.80;;;;;;5064364;28;20029;-36
2021/08/03 03:00:13;;;;;;;7.95;6.95;;;23.90;60.90;;;;;;5062839;28;20025;-37
2021/08/03 03:02:41;;;;;;;7.43;6.68;;;23.90;61.00;;;;;;5062829;28;20081;-37
2021/08/03 03:05:27;;;;;;;8.10;6.75;;;23.90;61.10;;;;;;5062772;28;20044;-36
2021/08/03 03:08:07;;;;;;;7.85;7.05;;;23.90;61.10;;;;;;5062939;28;20055;-36
2021/08/03 03:10:35;;;;;;;9.27;7.05;;;24.00;61.30;;;;;;5082577;28;20043;-37
2021/08/03 03:13:34;;;;;;;7.97;6.97;;;24.00;61.40;;;;;;5074923;28;20025;-36
2021/08/03 03:16:00;;;;;;;8.75;7.35;;;24.00;61.40;;;;;;5041156;28;20041;-36
2021/08/03 03:18:26;;;;;;;8.32;7.00;;;24.00;61.40;;;;;;5041182;28;20497;-36
2021/08/03 03:20:52;;;;;;;8.80;7.75;;;24.00;61.40;;;;;;5040971;28;20076;-36
2021/08/03 03:23:20;;;;;;;8.43;7.25;;;24.00;61.40;;;;;;5057665;28;20029;-37
2021/08/03 03:25:49;;;;;;;10.02;7.57;;;24.00;61.40;;;;;;5057718;28;20036;-37
2021/08/03 03:28:15;;;;;;;9.48;7.93;;;24.00;61.40;;;;;;5061168;28;20088;-37
2021/08/03 03:30:42;;;;;;;8.43;7.57;;;24.00;61.50;;;;;;5044097;28;20516;-36
2021/08/03 03:33:08;;;;;;;9.85;7.57;;;24.00;61.50;;;;;;5044330;28;20095;-36
2021/08/03 03:35:35;;;;;;;8.98;7.70;;;24.10;61.60;;;;;;5044341;28;20065;-37
2021/08/03 03:38:01;;;;;;;8.87;7.97;;;24.10;61.60;;;;;;5044241;28;20045;-37
2021/08/03 03:40:27;;;;;;;9.02;8.13;;;24.10;61.60;;;;;;5025970;28;20478;-37
2021/08/03 03:42:55;;;;;;;9.55;8.15;;;24.10;61.70;;;;;;5008006;28;20083;-36
2021/08/03 03:45:21;;;;;;;9.85;8.43;;;24.10;61.80;;;;;;5040675;28;20101;-37
2021/08/03 03:47:57;;;;;;;9.85;8.38;;;24.10;61.90;;;;;;5007944;28;20083;-37
2021/08/03 03:50:35;;;;;;;9.13;8.07;;;24.10;61.90;;;;;;5040549;28;20544;-36
2021/08/03 03:53:10;;;;;;;10.85;8.35;;;24.10;62.00;;;;;;5061986;28;20021;-37
2021/08/03 03:55:36;;;;;;;10.20;8.60;;;24.10;62.00;;;;;;5045964;28;20283;-37
2021/08/03 03:58:02;;;;;;;9.87;8.30;;;24.10;62.00;;;;;;5081605;28;20021;-37
2021/08/03 04:00:29;;;;;;;10.32;8.63;;;24.10;62.10;;;;;;5081562;28;20039;-37
2021/08/03 04:02:55;;;;;;;10.27;9.20;;;24.10;62.10;;;;;;5081833;28;20123;-37
2021/08/03 04:05:21;;;;;;;10.20;9.15;;;24.10;62.30;;;;;;5081717;28;20420;-37
2021/08/03 04:07:50;;;;;;;10.18;8.57;;;24.20;62.30;;;;;;5083028;28;20025;-37
2021/08/03 04:10:18;;;;;;;9.45;8.45;;;24.20;62.40;;;;;;5065551;28;20032;-37
2021/08/03 04:12:45;;;;;;;10.38;9.13;;;24.20;62.50;;;;;;5080662;28;20128;-37
2021/08/03 04:15:12;;;;;;;10.25;9.15;;;24.20;62.60;;;;;;5079123;28;20067;-37
2021/08/03 04:17:38;;;;;;;10.43;9.07;;;24.20;62.70;;;;;;5045175;28;20029;-37
2021/08/03 04:20:05;;;;;;;10.00;8.60;;;24.20;62.60;;;;;;5062642;28;20053;-37
2021/08/03 04:22:31;;;;;;;10.33;9.00;;;24.20;62.60;;;;;;5062690;28;20037;-37
2021/08/03 04:24:57;;;;;;;10.57;8.43;;;24.20;62.60;;;;;;5062619;28;20266;-37
2021/08/03 04:27:23;;;;;;;10.15;8.80;;;24.20;62.60;;;;;;5076796;28;20028;-37
2021/08/03 04:29:49;;;;;;;10.55;9.23;;;24.20;62.60;;;;;;5081058;28;20020;-37
2021/08/03 04:32:15;;;;;;;10.48;9.02;;;24.20;62.70;;;;;;5080710;28;20039;-37
2021/08/03 04:34:42;;;;;;;8.88;7.95;;;24.20;62.70;;;;;;5081266;28;20031;-37
2021/08/03 04:37:08;;;;;;;9.48;8.45;;;24.20;62.80;;;;;;5081848;28;20028;-37
2021/08/03 04:39:34;;;;;;;9.95;8.82;;;24.20;62.90;;;;;;5071941;28;20035;-37
2021/08/03 04:42:00;;;;;;;9.63;8.63;;;24.20;62.80;;;;;;5062150;28;20044;-37
2021/08/03 04:44:27;;;;;;;9.45;8.27;;;24.20;62.80;;;;;;5062536;28;20067;-39
2021/08/03 04:46:53;;;;;;;11.80;8.52;;;24.30;62.90;;;;;;5062422;28;20039;-36
2021/08/03 04:49:19;;;;;;;10.07;9.07;;;24.30;63.00;;;;;;5062441;28;20029;-37
2021/08/03 04:51:45;;;;;;;10.15;9.05;;;24.30;63.70;;;;;;5062242;28;20036;-41
2021/08/03 04:54:11;;;;;;;11.80;9.75;;;24.30;63.00;;;;;;5062499;28;20093;-37
2021/08/03 04:56:37;;;;;;;10.82;9.05;;;24.30;63.00;;;;;;5062479;28;20036;-37
2021/08/03 04:59:03;;;;;;;11.27;9.45;;;24.30;63.00;;;;;;5062243;28;20048;-37
2021/08/03 05:01:30;;;;;;;10.75;9.50;;;24.30;63.10;;;;;;5062152;28;20043;-37
2021/08/03 05:03:56;;;;;;;11.05;9.38;;;24.30;63.10;;;;;;5062471;28;20037;-37
2021/08/03 05:06:22;;;;;;;10.90;8.73;;;24.30;63.20;;;;;;5062228;28;20388;-37
2021/08/03 05:08:48;;;;;;;10.35;8.98;;;24.30;63.20;;;;;;5063486;28;20033;-37
2021/08/03 05:11:14;;;;;;;9.88;8.77;;;24.30;63.20;;;;;;5062087;28;20021;-36
2021/08/03 05:13:40;;;;;;;10.40;8.45;;;24.30;63.20;;;;;;5048795;28;20107;-36
2021/08/03 05:16:06;;;;;;;9.93;8.88;;;24.30;63.20;;;;;;5062155;28;20064;-37
2021/08/03 05:18:32;;;;;;;10.20;8.80;;;24.30;63.20;;;;;;5075027;28;20025;-37
2021/08/03 05:20:59;;;;;;;10.10;8.90;;;24.30;63.30;;;;;;5082072;28;20665;-37
2021/08/03 05:23:25;;;;;;;10.48;8.93;;;24.30;63.30;;;;;;5082021;28;20032;-37
2021/08/03 05:25:51;;;;;;;11.02;9.75;;;24.30;63.40;;;;;;5080512;28;20031;-37
2021/08/03 05:28:17;;;;;;;10.90;9.50;;;24.30;63.40;;;;;;5062269;28;20131;-37
2021/08/03 05:30:47;;;;;;;10.70;9.07;;;24.30;63.40;;;;;;5061939;28;20028;-37
2021/08/03 05:33:14;;;;;;;11.38;9.60;;;24.30;63.40;;;;;;5061882;28;20029;-37
2021/08/03 05:35:40;;;;;;;11.27;10.05;;;24.30;63.40;;;;;;5062295;28;20035;-36
2021/08/03 05:38:07;;;;;;;11.18;9.98;;;24.30;63.40;;;;;;5060681;28;20029;-36
2021/08/03 05:40:33;;;;;;;10.90;9.57;;;24.30;63.40;;;;;;5080844;28;20064;-37
2021/08/03 05:42:59;;;;;;;10.70;9.52;;;24.30;63.50;;;;;;5081825;28;20107;-37
2021/08/03 05:45:27;;;;;;;11.15;9.88;;;24.30;63.50;;;;;;5082057;28;20031;-37
2021/08/03 05:47:53;;;;;;;10.30;9.30;;;24.30;63.50;;;;;;5083120;28;20468;-37
2021/08/03 05:50:19;;;;;;;10.38;9.27;;;24.30;63.50;;;;;;5085755;28;20172;-37
2021/08/03 05:52:45;;;;;;;10.88;9.00;;;24.30;63.50;;;;;;5085537;28;20696;-37
2021/08/03 05:55:12;;;;;;;11.40;10.18;;;24.30;63.40;;;;;;5085756;28;20495;-37
2021/08/03 05:57:38;;;;;;;10.75;9.07;;;24.30;63.50;;;;;;5067839;28;20084;-37
2021/08/03 06:00:05;;;;;;;10.38;9.23;;;24.30;63.50;;;;;;5065493;28;20085;-37
2021/08/03 06:02:31;;;;;;;10.43;9.32;;;24.30;63.50;;;;;;5068384;28;20056;-37
2021/08/03 06:04:57;;;;;;;10.80;9.68;;;24.30;63.60;;;;;;5085499;28;20047;-37
2021/08/03 06:07:25;;;;;;;10.47;9.27;;;24.30;63.70;;;;;;5084399;28;20028;-37
2021/08/03 06:09:55;;;;;;;10.40;9.25;;;24.30;63.60;;;;;;5071876;28;20312;-37
2021/08/03 06:12:21;;;;;;;10.95;9.40;;;24.30;63.80;;;;;;5055962;28;20055;-37
2021/08/03 06:14:48;;;;;;;12.13;9.77;;;24.30;63.70;;;;;;5064036;28;20026;-37
2021/08/03 06:17:15;;;;;;;10.82;9.52;;;24.30;63.90;;;;;;5063974;28;20531;-37
2021/08/03 06:19:48;;;;;;;11.20;9.32;;;24.30;63.80;;;;;;5065249;28;20112;-37
2021/08/03 06:22:14;;;;;;;12.10;10.55;;;24.30;63.90;;;;;;5065038;28;20107;-37
2021/08/03 06:24:41;;;;;;;11.43;10.23;;;24.30;64.00;;;;;;5065330;28;20072;-37
2021/08/03 06:27:08;;;;;;;10.65;9.38;;;24.30;64.00;;;;;;5077001;28;20778;-37
2021/08/03 06:29:37;;;;;;;11.48;9.85;;;24.30;63.90;;;;;;5085091;28;20119;-37
2021/08/03 06:32:03;;;;;;;12.65;10.05;;;24.30;63.80;;;;;;5084166;28;20048;-37
2021/08/03 06:34:29;;;;;;;11.15;9.60;;;24.30;63.80;;;;;;5064727;28;20100;-37
2021/08/03 06:36:55;;;;;;;10.38;9.05;;;24.30;63.80;;;;;;5063854;28;20032;-37
2021/08/03 06:39:22;;;;;;;10.80;9.05;;;24.30;63.80;;;;;;5073869;28;20534;-36
2021/08/03 06:41:48;;;;;;;11.20;9.80;;;24.30;63.80;;;;;;5084773;28;20032;-37
2021/08/03 06:44:22;;;;;;;11.95;9.45;;;24.30;63.70;;;;;;5083412;28;20171;-37
2021/08/03 06:46:51;;;;;;;11.27;9.73;;;24.30;63.70;;;;;;5066910;28;20071;-36
2021/08/03 06:49:18;;;;;;;11.23;9.65;;;24.30;63.80;;;;;;5084893;28;20033;-36
2021/08/03 06:51:44;;;;;;;12.23;9.70;;;24.30;63.80;;;;;;5083743;28;20013;-37
2021/08/03 06:54:11;;;;;;;12.43;9.60;;;24.30;63.90;;;;;;5084436;28;20028;-37
2021/08/03 06:56:38;;;;;;;;;;;24.30;64.00;;;;;;5076828;28;20268;-37
2021/08/03 06:59:07;;;;;;;11.98;9.75;;;24.30;64.10;;;;;;5062520;28;19920;-37
2021/08/03 07:01:54;;;;;;;12.10;10.43;;;24.30;64.20;;;;;;5064210;28;20025;-37
2021/08/03 07:04:33;;;;;;;11.50;9.70;;;24.30;64.40;;;;;;5064193;28;20059;-37
2021/08/03 07:07:00;;;;;;;10.85;9.73;;;24.30;64.40;;;;;;5063367;28;20083;-37
2021/08/03 07:09:27;;;;;;;11.70;10.07;;;24.30;64.20;;;;;;5063034;28;20028;-37
2021/08/03 07:11:56;;;;;;;11.10;9.90;;;24.30;64.20;;;;;;5046529;28;20184;-37
2021/08/03 07:14:25;;;;;;;11.50;9.73;;;24.30;64.30;;;;;;5064239;28;20823;-37
2021/08/03 07:16:55;;;;;;;11.07;9.80;;;24.30;64.20;;;;;;5062908;28;20033;-37
2021/08/03 07:19:22;;;;;;;10.80;9.70;;;24.30;64.20;;;;;;5062844;28;20097;-37
2021/08/03 07:21:52;;;;;;;10.07;8.70;;;24.30;64.20;;;;;;5062523;28;20084;-37
2021/08/03 07:24:18;;;;;;;10.65;9.52;;;24.30;64.20;;;;;;5063813;28;20039;-37
2021/08/03 07:26:44;;;;;;;10.87;9.70;;;24.30;64.20;;;;;;5072814;28;20072;-37
2021/08/03 07:29:11;;;;;;;10.93;9.80;;;24.30;64.20;;;;;;5084071;28;20603;-36
2021/08/03 07:31:37;;;;;;;10.98;9.80;;;24.30;64.30;;;;;;5083983;28;20025;-37
2021/08/03 07:34:06;;;;;;;11.07;9.85;;;24.30;64.30;;;;;;5083823;28;20021;-37
2021/08/03 07:36:36;;;;;;;11.23;10.05;;;24.30;64.50;;;;;;5083929;28;20535;-37
2021/08/03 07:39:04;;;;;;;11.63;9.88;;;24.30;64.50;;;;;;5077587;28;20067;-37
2021/08/03 07:41:31;;;;;;;11.65;10.43;;;24.30;64.40;;;;;;5062421;28;20449;-37
2021/08/03 07:43:57;;;;;;;11.70;10.50;;;24.30;64.40;;;;;;5063576;28;20040;-37
2021/08/03 07:46:24;;;;;;;11.98;10.15;;;24.30;64.40;;;;;;5063662;28;20047;-36
2021/08/03 07:48:50;;;;;;;11.20;9.70;;;24.30;64.50;;;;;;5062646;28;20055;-37
2021/08/03 07:51:20;;;;;;;11.02;9.85;;;24.30;64.60;;;;;;5063762;28;20113;-37
2021/08/03 07:53:46;;;;;;;11.48;10.15;;;24.30;64.70;;;;;;5063351;28;20040;-37
2021/08/03 07:56:13;;;;;;;11.00;9.48;;;24.30;64.50;;;;;;5067832;28;20028;-37
2021/08/03 07:58:40;;;;;;;10.68;9.40;;;24.30;64.50;;;;;;5083503;28;20029;-37
2021/08/03 08:01:06;;;;;;;10.48;9.38;;;24.30;64.50;;;;;;5082302;28;20031;-37
2021/08/03 08:03:33;;;;;;;11.88;9.98;;;24.30;64.50;;;;;;5081670;28;20051;-37
2021/08/03 08:05:59;;;;;;;11.60;10.40;;;24.30;64.50;;;;;;5083210;28;20036;-36
2021/08/03 08:08:26;;;;;;;11.55;9.82;;;24.30;64.50;;;;;;5082124;28;20029;-37
2021/08/03 08:10:52;;;;;;;10.88;9.77;;;24.30;64.50;;;;;;5063233;28;20029;-36
2021/08/03 08:13:18;;;;;;;11.15;9.63;;;24.30;64.60;;;;;;5063028;28;20116;-37
2021/08/03 08:15:44;;;;;;;11.27;10.02;;;24.30;64.50;;;;;;5063073;28;20025;-37
2021/08/03 08:18:10;;;;;;;10.75;9.65;;;24.30;64.40;;;;;;5061915;28;20029;-37
2021/08/03 08:20:41;;;;;;;10.20;9.02;;;24.30;64.40;;;;;;5062882;28;20113;-37
2021/08/03 08:23:07;;;;;;;10.93;9.23;;;24.30;64.30;;;;;;5062863;28;20045;-37
2021/08/03 08:25:34;;;;;;;10.85;9.63;;;24.30;64.40;;;;;;5063037;28;20017;-37
2021/08/03 08:28:00;;;;;;;11.38;9.93;;;24.30;64.40;;;;;;5082248;28;20067;-37
2021/08/03 08:30:26;;;;;;;10.98;9.85;;;24.30;64.60;;;;;;5083030;28;20024;-37
2021/08/03 08:32:52;;;;;;;11.18;9.85;;;24.30;64.80;;;;;;5083071;28;20028;-36
2021/08/03 08:35:18;;;;;;;11.23;9.90;;;24.30;64.80;;;;;;5079685;28;20028;-37
2021/08/03 08:37:45;;;;;;;11.00;9.57;;;24.20;64.80;;;;;;5083135;28;20024;-36
2021/08/03 08:40:11;;;;;;;13.68;9.98;;;24.20;64.90;;;;;;5067129;28;20051;-37
2021/08/03 08:42:40;;;;;;;11.90;10.30;;;24.20;64.80;;;;;;5062693;28;20037;-37
2021/08/03 08:45:07;;;;;;;11.25;10.05;;;24.20;64.80;;;;;;5062654;28;20055;-37
2021/08/03 08:47:33;;;;;;;11.98;9.82;;;24.20;64.80;;;;;;5062890;28;20029;-37
2021/08/03 08:50:06;;;;;;;10.77;9.68;;;24.20;65.00;;;;;;5062681;28;20060;-37
2021/08/03 08:52:36;;;;;;;11.35;9.80;;;24.20;64.90;;;;;;5062848;28;20025;-36
2021/08/03 08:55:02;;;;;;;11.52;9.88;;;24.20;64.60;;;;;;5062321;28;20175;-36
2021/08/03 08:57:28;;;;;;;10.75;9.60;;;24.20;64.40;;;;;;5062529;28;20032;-37
2021/08/03 08:59:54;;;;;;;10.70;9.48;;;24.20;64.40;;;;;;5062762;28;20090;-37
2021/08/03 09:02:57;;;;;;;12.68;9.80;;;24.20;64.30;;;;;;5062255;28;20035;-37
2021/08/03 09:05:34;;;;;;;11.05;9.05;;;24.20;64.20;;;;;;5026117;28;20044;-36
2021/08/03 09:08:01;;;;;;;10.13;8.95;;;24.20;64.30;;;;;;5040007;28;20049;-37
2021/08/03 09:10:35;;;;;;;10.27;9.23;;;24.20;64.40;;;;;;5054205;28;20083;-37
2021/08/03 09:13:03;;;;;;;10.55;9.45;;;24.20;64.40;;;;;;5025850;28;20468;-37
2021/08/03 09:15:30;;;;;;;11.13;9.40;;;24.20;64.40;;;;;;5039625;28;20037;-37
2021/08/03 09:18:11;;;;;;;11.02;9.75;;;24.20;64.60;;;;;;5039889;28;20041;-37
2021/08/03 09:20:38;;;;;;;11.63;10.10;;;24.20;64.70;;;;;;5039481;28;20050;-37
2021/08/03 09:23:06;;;;;;;11.15;9.85;;;24.20;64.70;;;;;;5040646;28;20886;-37
2021/08/03 09:25:32;;;;;;;10.20;9.18;;;24.20;64.60;;;;;;5043613;28;20059;-37
2021/08/03 09:28:05;;;;;;;11.07;9.48;;;24.20;64.60;;;;;;5062835;28;20037;-37
2021/08/03 09:30:33;;;;;;;11.98;10.25;;;24.20;64.50;;;;;;5063670;28;20025;-37
2021/08/03 09:33:00;;;;;;;11.00;9.73;;;24.20;64.20;;;;;;5063852;28;20029;-37
2021/08/03 09:35:26;;;;;;;10.57;9.50;;;24.20;64.20;;;;;;5063198;28;20108;-37
2021/08/03 09:37:53;;;;;;;9.82;8.82;;;24.20;64.10;;;;;;5063469;28;20470;-37
2021/08/03 09:40:23;;;;;;;9.25;8.25;;;24.20;64.10;;;;;;5052392;28;20140;-37
2021/08/03 09:43:01;;;;;;;10.63;8.95;;;24.20;64.00;;;;;;5065935;28;20073;-37
2021/08/03 09:45:29;;;;;;;11.80;9.93;;;24.20;63.90;;;;;;5065702;28;20089;-37
2021/08/03 09:48:09;;;;;;;10.40;9.38;;;24.20;64.00;;;;;;5066257;28;20037;-37
2021/08/03 09:50:59;;;;;;;10.80;9.35;;;24.20;64.20;;;;;;5065811;28;20028;-37
2021/08/03 09:53:48;;;;;;;10.88;9.57;;;24.20;64.30;;;;;;5065669;28;20025;-37
2021/08/03 09:56:18;;;;;;;10.60;9.55;;;24.20;64.30;;;;;;5064235;28;20044;-37
2021/08/03 09:59:04;;;;;;;10.60;9.40;;;24.20;64.40;;;;;;5065674;28;20064;-37
2021/08/03 10:01:38;;;;;;;10.52;9.25;;;24.10;64.50;;;;;;5065704;28;20494;-37
2021/08/03 10:04:09;;;;;;;11.50;9.50;;;24.20;64.60;;;;;;5082381;28;20087;-37
2021/08/03 10:06:36;;;;;;;10.75;9.60;;;24.10;64.50;;;;;;5085493;28;20763;-37
2021/08/03 10:09:02;;;;;;;;;;;24.20;64.50;;;;;;5079931;28;20036;-37
2021/08/03 10:11:29;;;;;;;10.23;9.15;;;24.10;64.20;;;;;;5065300;28;19931;-37
2021/08/03 10:13:55;;;;;;;10.60;8.95;;;24.20;64.10;;;;;;5065615;28;20036;-37
2021/08/03 10:16:22;;;;;;;10.15;9.05;;;24.20;64.10;;;;;;5063848;28;20021;-36
2021/08/03 10:18:49;;;;;;;11.27;10.07;;;24.10;63.90;;;;;;5065447;28;20033;-37
2021/08/03 10:21:29;;;;;;;11.77;9.30;;;24.20;64.00;;;;;;5064055;28;20041;-37
2021/08/03 10:24:25;;;;;;;10.45;9.20;;;24.10;63.80;;;;;;5048155;28;20037;-36
2021/08/03 10:27:03;;;;;;;10.75;9.27;;;24.10;63.80;;;;;;5041070;28;20036;-37
2021/08/03 10:29:30;;;;;;;11.45;9.43;;;24.20;64.00;;;;;;5042676;28;20038;-36
2021/08/03 10:31:56;;;;;;;11.45;9.23;;;24.10;64.00;;;;;;5026068;28;20071;-36
2021/08/03 10:34:43;;;;;;;11.50;10.30;;;24.10;64.20;;;;;;5041215;28;20025;-37
2021/08/03 10:37:10;;;;;;;10.95;9.27;;;24.10;64.40;;;;;;5042282;28;20101;-37
2021/08/03 10:39:56;;;;;;;11.10;9.80;;;24.20;64.40;;;;;;5042403;28;20771;-37
2021/08/03 10:42:23;;;;;;;10.18;8.98;;;24.10;64.50;;;;;;5042219;28;20044;-36
2021/08/03 10:45:01;;;;;;;10.50;9.30;;;24.10;64.50;;;;;;5025713;28;20548;-37
2021/08/03 10:47:33;;;;;;;10.77;9.40;;;24.10;64.50;;;;;;5041930;28;20042;-37
2021/08/03 10:50:08;;;;;;;10.82;9.70;;;24.10;64.30;;;;;;5042069;28;20093;-37
2021/08/03 10:55:31;;;;;;;11.07;9.93;;;24.10;64.10;;;;;;5042052;28;20044;-37
2021/08/03 10:58:09;;;;;;;9.75;8.75;;;24.10;64.10;;;;;;5040669;28;20045;-37
2021/08/03 11:00:45;;;;;;;10.05;8.95;;;24.10;64.10;;;;;;5041800;28;20064;-36
2021/08/03 11:03:35;;;;;;;10.23;9.07;;;24.10;64.10;;;;;;5042497;28;20049;-37
2021/08/03 11:06:10;;;;;;;10.82;9.73;;;24.10;64.00;;;;;;5044449;28;20030;-36
2021/08/03 11:08:38;;;;;;;10.85;9.75;;;24.10;64.00;;;;;;5049766;28;20017;-37
2021/08/03 11:11:09;;;;;;;10.85;9.52;;;24.10;64.10;;;;;;5084492;28;20029;-37
2021/08/03 11:13:39;;;;;;;11.90;9.82;;;24.10;64.20;;;;;;5084358;28;20036;-37
2021/08/03 11:16:10;;;;;;;10.80;9.55;;;24.20;64.50;;;;;;5084063;28;20081;-36
2021/08/03 11:18:43;;;;;;;10.57;9.25;;;24.10;64.50;;;;;;5084186;28;20021;-37
2021/08/03 11:21:11;;;;;;;10.48;9.45;;;24.10;64.60;;;;;;5084074;28;20056;-37
2021/08/03 11:23:59;;;;;;;11.15;9.95;;;24.10;64.60;;;;;;5083846;28;20036;-37
2021/08/03 11:26:31;;;;;;;11.40;9.57;;;24.10;64.60;;;;;;5077371;28;20029;-37
2021/08/03 11:28:59;;;;;;;10.65;9.55;;;24.10;64.50;;;;;;5064095;28;20025;-36
2021/08/03 11:31:41;;;;;;;10.63;9.52;;;24.10;64.40;;;;;;5064244;28;20051;-37
2021/08/03 11:34:08;;;;;;;11.18;9.95;;;24.10;64.40;;;;;;5064153;28;20025;-37
2021/08/03 11:36:36;;;;;;;10.73;9.63;;;24.10;64.40;;;;;;5063763;28;20104;-36
2021/08/03 11:39:20;;;;;;;10.63;9.52;;;24.10;64.40;;;;;;5069993;28;20906;-36
2021/08/03 11:41:47;;;;;;;11.18;10.07;;;24.10;64.40;;;;;;5082619;28;20036;-37
2021/08/03 11:44:14;;;;;;;;;;;24.10;64.40;;;;;;5084277;28;20052;-37
2021/08/03 11:46:45;;;;;;;10.70;9.60;;;24.10;64.30;;;;;;5083099;28;19923;-36
2021/08/03 11:49:11;;;;;;;10.65;9.23;;;24.10;64.30;;;;;;5083834;28;20120;-37
2021/08/03 11:51:44;;;;;;;11.10;9.88;;;24.10;64.40;;;;;;5083409;28;20021;-37
2021/08/03 11:54:12;;;;;;;10.50;9.40;;;24.10;64.60;;;;;;5080534;28;20560;-37
2021/08/03 11:56:38;;;;;;;11.38;10.05;;;24.10;64.60;;;;;;5075120;28;20051;-36
2021/08/03 11:59:04;;;;;;;11.40;10.18;;;24.10;64.80;;;;;;5063437;28;20063;-37
2021/08/03 12:01:52;;;;;;;11.52;10.32;;;24.10;65.00;;;;;;5063311;28;20032;-36
2021/08/03 12:04:23;;;;;;;11.57;10.13;;;24.10;65.00;;;;;;5063038;28;20052;-37
2021/08/03 12:06:50;;;;;;;11.70;10.23;;;24.10;64.90;;;;;;5063041;28;20059;-37
2021/08/03 12:09:17;;;;;;;11.20;9.95;;;24.10;65.00;;;;;;5071318;28;20051;-37
2021/08/03 12:11:45;;;;;;;12.02;10.13;;;24.10;64.70;;;;;;5083045;28;20091;-37
2021/08/03 12:14:12;;;;;;;11.48;10.18;;;24.10;64.80;;;;;;5083204;28;20024;-37
2021/08/03 12:16:45;;;;;;;11.52;10.27;;;24.10;64.70;;;;;;5082950;28;20543;-37
2021/08/03 12:19:27;;;;;;;12.00;9.88;;;24.10;64.80;;;;;;5082838;28;20039;-37
2021/08/03 12:21:53;;;;;;;13.65;10.10;;;24.10;64.80;;;;;;5082611;28;20076;-37
2021/08/03 12:24:19;;;;;;;11.70;10.43;;;24.10;64.80;;;;;;5082986;28;20028;-37
2021/08/03 12:26:48;;;;;;;11.57;10.25;;;24.10;64.80;;;;;;5073070;28;20076;-37
2021/08/03 12:29:14;;;;;;;12.05;10.30;;;24.10;64.70;;;;;;5061444;28;20025;-38
2021/08/03 12:31:44;;;;;;;11.35;10.00;;;24.10;64.80;;;;;;5064109;28;20075;-36
2021/08/03 12:34:12;;;;;;;10.98;9.77;;;24.10;64.90;;;;;;5062803;28;20024;-36
2021/08/03 12:36:42;;;;;;;12.23;10.52;;;24.10;65.00;;;;;;5062771;28;20021;-37
2021/08/03 12:39:18;;;;;;;12.02;10.27;;;24.10;65.30;;;;;;5069695;28;20029;-37
2021/08/03 12:42:03;;;;;;;12.13;10.23;;;24.10;65.20;;;;;;5082553;28;20044;-36
2021/08/03 12:44:31;;;;;;;11.77;10.57;;;24.10;65.50;;;;;;5082665;28;20032;-37
2021/08/03 12:47:14;;;;;;;13.77;11.77;;;24.10;65.30;;;;;;5082539;28;20016;-36
2021/08/03 12:49:45;;;;;;;11.60;10.23;;;24.10;65.30;;;;;;5082738;28;20028;-37
2021/08/03 12:52:18;;;;;;;13.13;11.13;;;24.10;65.20;;;;;;5082395;28;20111;-37
2021/08/03 12:55:02;;;;;;;12.05;10.45;;;24.10;65.20;;;;;;5082587;28;20035;-37